createdAt,value
2017-12-10T00:02:31.365Z,64.80
2017-12-10T00:07:33.646Z,65.50
2017-12-10T00:12:35.892Z,65.60
2017-12-10T00:17:37.438Z,65.60
2017-12-10T00:22:38.997Z,65.80
2017-12-10T00:27:40.534Z,65.50
2017-12-10T00:32:42.788Z,66.30
2017-12-10T00:37:44.273Z,66.30
2017-12-10T00:42:45.800Z,66.20
2017-12-10T00:47:47.289Z,66.50
2017-12-10T00:52:48.844Z,66.20
2017-12-10T00:57:50.353Z,66.70
2017-12-10T01:02:52.600Z,66.60
2017-12-10T01:07:54.102Z,66.60
2017-12-10T01:12:56.385Z,66.90
2017-12-10T01:18:05.665Z,67.10
2017-12-10T01:23:07.217Z,67.00
2017-12-10T01:28:09.465Z,67.50
2017-12-10T01:33:10.978Z,67.40
2017-12-10T01:38:12.469Z,67.20
2017-12-10T01:43:13.969Z,67.20
2017-12-10T01:48:15.444Z,66.40
2017-12-10T01:53:17.142Z,66.50
2017-12-10T01:58:18.632Z,66.40
2017-12-10T02:03:20.163Z,66.50
2017-12-10T02:08:22.388Z,67.00
2017-12-10T02:13:23.901Z,66.90
2017-12-10T02:18:25.394Z,67.20
2017-12-10T02:23:26.935Z,67.40
2017-12-10T02:28:28.446Z,67.60
2017-12-10T02:33:29.958Z,67.50
2017-12-10T02:38:31.481Z,67.70
2017-12-10T02:43:33.009Z,67.80
2017-12-10T02:48:35.263Z,68.50
2017-12-10T02:53:36.768Z,67.80
2017-12-10T02:58:39.027Z,68.00
2017-12-10T03:03:40.601Z,68.00
2017-12-10T03:08:42.097Z,68.10
2017-12-10T03:13:43.578Z,68.80
2017-12-10T03:18:47.141Z,68.00
2017-12-10T03:23:48.646Z,68.10
2017-12-10T03:28:50.928Z,67.60
2017-12-10T03:33:52.438Z,67.60
2017-12-10T03:38:54.785Z,67.60
2017-12-10T03:43:57.061Z,67.80
2017-12-10T03:48:59.301Z,67.60
2017-12-10T03:54:00.869Z,67.60
2017-12-10T03:59:02.356Z,68.10
2017-12-10T04:04:03.860Z,68.40
2017-12-10T04:09:05.385Z,68.30
2017-12-10T04:14:06.893Z,68.70
2017-12-10T04:19:08.520Z,68.80
2017-12-10T04:24:10.019Z,69.10
2017-12-10T04:29:12.276Z,68.70
2017-12-10T04:34:13.768Z,68.70
2017-12-10T04:39:16.013Z,69.10
2017-12-10T04:44:17.540Z,69.10
2017-12-10T04:49:19.050Z,69.00
2017-12-10T04:54:20.539Z,69.20
2017-12-10T04:59:22.054Z,69.20
2017-12-10T05:04:23.593Z,70.10
2017-12-10T05:09:25.268Z,69.50
2017-12-10T05:14:26.794Z,69.40
2017-12-10T05:19:28.276Z,70.00
2017-12-10T05:24:29.770Z,69.90
2017-12-10T05:29:31.285Z,70.30
2017-12-10T05:34:32.854Z,69.80
2017-12-10T05:39:34.369Z,69.60
2017-12-10T05:44:35.923Z,70.20
2017-12-10T05:49:37.492Z,69.70
2017-12-10T05:54:39.712Z,69.00
2017-12-10T05:59:41.211Z,69.00
2017-12-10T06:04:42.698Z,69.10
2017-12-10T06:09:44.210Z,69.50
2017-12-10T06:14:45.780Z,69.80
2017-12-10T06:19:48.018Z,69.80
2017-12-10T06:24:50.285Z,70.00
2017-12-10T06:29:51.788Z,70.60
2017-12-10T06:34:54.056Z,71.00
2017-12-10T06:39:55.539Z,70.90
2017-12-10T06:44:57.874Z,70.90
2017-12-10T06:49:59.454Z,70.90
2017-12-10T06:55:00.945Z,70.90
2017-12-10T07:00:02.460Z,70.90
2017-12-10T07:05:03.966Z,71.40
2017-12-10T07:10:05.469Z,71.30
2017-12-10T07:15:06.997Z,71.00
2017-12-10T07:20:08.531Z,71.30
2017-12-10T07:25:10.061Z,71.10
2017-12-10T07:30:12.386Z,71.20
2017-12-10T07:35:14.082Z,71.10
2017-12-10T07:40:15.669Z,71.90
2017-12-10T07:45:17.196Z,71.90
2017-12-10T07:50:18.694Z,71.20
2017-12-10T07:55:20.234Z,71.40
2017-12-10T08:00:21.761Z,71.00
2017-12-10T08:05:23.994Z,70.70
2017-12-10T08:10:25.494Z,70.70
2017-12-10T08:15:27.825Z,70.00
2017-12-10T08:20:29.368Z,70.00
2017-12-10T08:25:30.900Z,69.80
2017-12-10T08:30:32.488Z,69.60
2017-12-10T08:35:34.770Z,68.70
2017-12-10T08:40:37.106Z,67.00
2017-12-10T08:45:41.218Z,66.90
2017-12-10T08:50:42.788Z,66.50
2017-12-10T08:55:44.298Z,65.10
2017-12-10T09:00:45.822Z,65.00
2017-12-10T09:05:47.321Z,65.60
2017-12-10T09:10:48.883Z,65.30
2017-12-10T09:15:50.409Z,65.40
2017-12-10T09:20:51.919Z,66.30
2017-12-10T09:25:53.476Z,66.50
2017-12-10T09:30:55.063Z,65.80
2017-12-10T09:35:56.592Z,65.30
2017-12-10T09:40:58.155Z,64.30
2017-12-10T09:45:59.664Z,64.40
2017-12-10T09:51:01.214Z,63.70
2017-12-10T09:56:02.731Z,65.40
2017-12-10T10:01:05.014Z,68.90
2017-12-10T10:06:07.271Z,73.20
2017-12-10T10:11:08.833Z,73.10
2017-12-10T10:16:10.339Z,75.50
2017-12-10T10:21:12.594Z,80.40
2017-12-10T10:26:14.091Z,80.40
2017-12-10T10:31:16.372Z,83.40
2017-12-10T10:36:18.697Z,83.60
2017-12-10T10:41:20.220Z,83.50
2017-12-10T10:46:22.522Z,83.50
2017-12-10T10:51:24.118Z,83.50
2017-12-10T10:56:25.744Z,84.10
2017-12-10T11:01:28.034Z,84.10
2017-12-10T11:06:30.306Z,84.20
2017-12-10T11:11:31.814Z,84.10
2017-12-10T11:16:33.408Z,83.40
2017-12-10T11:21:34.953Z,84.00
2017-12-10T11:26:36.493Z,83.30
2017-12-10T11:31:38.790Z,82.70
2017-12-10T11:36:40.316Z,82.70
2017-12-10T11:41:41.869Z,82.90
2017-12-10T11:46:43.482Z,83.00
2017-12-10T11:51:45.753Z,83.90
2017-12-10T11:56:47.274Z,83.00
2017-12-10T12:01:48.984Z,83.80
2017-12-10T12:06:50.530Z,82.90
2017-12-10T12:11:52.060Z,82.70
2017-12-10T12:16:53.581Z,83.00
2017-12-10T12:21:55.123Z,82.80
2017-12-10T12:26:56.710Z,82.80
2017-12-10T12:31:58.242Z,82.10
2017-12-10T12:36:59.749Z,81.70
2017-12-10T12:42:01.297Z,83.00
2017-12-10T12:47:02.907Z,82.80
2017-12-10T12:52:05.192Z,82.30
2017-12-10T12:57:07.381Z,83.00
2017-12-10T13:02:09.655Z,82.90
2017-12-10T13:07:11.573Z,82.90
2017-12-10T13:12:13.104Z,82.30
2017-12-10T13:17:15.394Z,82.90
2017-12-10T13:22:16.974Z,82.50
2017-12-10T13:27:18.592Z,82.20
2017-12-10T13:32:20.122Z,82.20
2017-12-10T13:37:21.688Z,82.30
2017-12-10T13:42:23.232Z,82.50
2017-12-10T13:47:25.572Z,82.50
2017-12-10T13:52:27.134Z,82.40
2017-12-10T13:57:28.739Z,82.10
2017-12-10T14:02:30.427Z,81.70
2017-12-10T14:07:32.786Z,82.10
2017-12-10T14:12:34.301Z,81.90
2017-12-10T14:17:35.848Z,81.90
2017-12-10T14:22:38.125Z,82.70
2017-12-10T14:27:39.625Z,82.70
2017-12-10T14:32:48.194Z,82.50
2017-12-10T14:37:49.756Z,83.00
2017-12-10T14:42:51.315Z,83.00
2017-12-10T14:47:52.877Z,83.10
2017-12-10T14:52:54.421Z,83.10
2017-12-10T14:57:55.901Z,83.00
2017-12-10T15:02:57.591Z,83.20
2017-12-10T15:07:59.250Z,83.40
2017-12-10T15:13:00.881Z,83.00
2017-12-10T15:18:02.434Z,83.20
2017-12-10T15:23:03.974Z,83.90
2017-12-10T15:28:05.512Z,84.10
2017-12-10T15:33:07.063Z,83.90
2017-12-10T15:38:09.318Z,84.00
2017-12-10T15:43:10.887Z,84.00
2017-12-10T15:48:12.422Z,84.10
2017-12-10T15:53:14.041Z,84.20
2017-12-10T15:58:15.666Z,84.30
2017-12-10T16:03:17.194Z,85.00
2017-12-10T16:08:19.586Z,85.10
2017-12-10T16:13:21.124Z,85.00
2017-12-10T16:18:22.647Z,85.00
2017-12-10T16:23:24.110Z,85.20
2017-12-10T16:28:25.624Z,85.00
2017-12-10T16:33:27.167Z,85.10
2017-12-10T16:38:28.705Z,85.40
2017-12-10T16:43:30.332Z,85.50
2017-12-10T16:48:32.816Z,85.30
2017-12-10T16:53:34.302Z,85.30
2017-12-10T16:58:36.534Z,85.70
2017-12-10T17:03:38.065Z,85.60
2017-12-10T17:08:39.643Z,85.80
2017-12-10T17:13:41.320Z,86.20
2017-12-10T17:18:42.810Z,86.20
2017-12-10T17:23:44.305Z,85.60
2017-12-10T17:28:45.850Z,85.30
2017-12-10T17:33:47.379Z,85.40
2017-12-10T17:38:48.884Z,85.80
2017-12-10T17:43:50.449Z,85.70
2017-12-10T17:48:52.057Z,85.40
2017-12-10T17:53:54.435Z,85.40
2017-12-10T17:58:56.030Z,85.40
2017-12-10T18:03:57.758Z,85.70
2017-12-10T18:08:59.319Z,86.10
2017-12-10T18:14:00.944Z,86.00
2017-12-10T18:19:02.606Z,86.10
2017-12-10T18:24:05.115Z,86.60
2017-12-10T18:29:06.678Z,86.50
2017-12-10T18:34:08.309Z,87.50
2017-12-10T18:39:10.018Z,87.90
2017-12-10T18:44:11.777Z,88.10
2017-12-10T18:49:13.389Z,87.70
2017-12-10T18:54:14.941Z,89.20
2017-12-10T18:59:16.811Z,88.70
2017-12-10T19:04:18.459Z,88.70
2017-12-10T19:09:20.964Z,87.50
2017-12-10T19:14:22.795Z,87.50
2017-12-10T19:19:24.459Z,87.50
2017-12-10T19:24:26.076Z,87.50
2017-12-10T19:29:27.671Z,87.20
2017-12-10T19:34:29.270Z,87.20
2017-12-10T19:39:30.860Z,87.40
2017-12-10T19:44:32.472Z,86.80
2017-12-10T19:49:34.152Z,86.80
2017-12-10T19:54:35.767Z,86.30
2017-12-10T19:59:37.369Z,85.50
2017-12-10T20:04:39.099Z,85.20
2017-12-10T20:09:41.406Z,85.60
2017-12-10T20:14:43.822Z,85.30
2017-12-10T20:19:45.403Z,85.30
2017-12-10T20:24:46.974Z,85.60
2017-12-10T20:29:48.555Z,83.90
2017-12-10T20:34:50.146Z,81.20
2017-12-10T20:39:51.681Z,79.40
2017-12-10T20:44:53.250Z,78.70
2017-12-10T20:49:54.799Z,78.60
2017-12-10T20:54:56.371Z,78.10
2017-12-10T20:59:57.848Z,77.70
2017-12-10T21:04:59.425Z,77.30
2017-12-10T21:10:00.971Z,77.00
2017-12-10T21:15:02.641Z,76.70
2017-12-10T21:20:04.253Z,76.10
2017-12-10T21:25:05.858Z,75.40
2017-12-10T21:30:07.413Z,75.20
2017-12-10T21:35:09.030Z,74.70
2017-12-10T21:40:10.544Z,74.90
2017-12-10T21:45:12.360Z,75.40
2017-12-10T21:50:13.923Z,75.60
2017-12-10T21:55:15.452Z,77.30
2017-12-10T22:00:17.038Z,80.30
2017-12-10T22:05:19.236Z,86.10
2017-12-10T22:10:20.684Z,86.10
2017-12-10T22:15:23.032Z,87.90
2017-12-10T22:20:24.577Z,86.90
2017-12-10T22:25:26.070Z,86.40
2017-12-10T22:30:27.555Z,86.00
2017-12-10T22:35:36.139Z,86.00
2017-12-10T22:40:37.620Z,86.30
2017-12-10T22:45:39.361Z,86.30
2017-12-10T22:50:41.656Z,86.10
2017-12-10T22:55:43.193Z,86.10
2017-12-10T23:00:44.724Z,85.70
2017-12-10T23:05:46.377Z,86.40
2017-12-10T23:10:47.907Z,84.70
2017-12-10T23:15:50.306Z,84.60
2017-12-10T23:20:52.590Z,84.80
2017-12-10T23:25:54.890Z,85.20
2017-12-10T23:30:56.410Z,85.20
2017-12-10T23:35:57.913Z,85.50
2017-12-10T23:41:00.133Z,85.40
2017-12-10T23:46:01.636Z,85.40
2017-12-10T23:51:03.135Z,85.70
2017-12-10T23:56:04.649Z,85.60
